West Linn, OR (97068)

12:02 PM PST on March 05, 2015 (GMT -0800)
Sunburst II | Change Station
CLOSE
Current Station
Personal Weather Station
Location: West Linn, OR
Elevation: 689 ft
Nearby Weather Stations

Elev 689 ft 45.38 °N, 122.65 °W | Updated 41 seconds ago

Clear
Clear
52.3 °F
Feels Like 52.3 °F
N
3.1
Wind Variable Wind from NNE
Gusts 4.0 mph

Today
High -- | Low -- °F
--% Chance of Precip.
Yesterday
High -- | Low -- °F
Precip. -- in
6:41 AM 6:03 PM
Full, 100% visible
Pressure 30.39 in
Visibility 10.0 miles
Clouds Clear
Dew Point 36 °F
Humidity 54%
Rainfall in
Snow Depth Not available.
UV 5 out of 12
Pollen 4.70 out of 12
Air Quality Not available.
Flu Activity Not available.
METAR KUAO 051953Z AUTO 00000KT 10SM CLR 11/01 A3038 RMK AO2 SLP290 T01060011

More Conditions Fewer Conditions

Pressure 30.39 in
Visibility 10.0 miles
Clouds Clear
Dew Point 36 °F
Humidity 54%
Rainfall in
Snow Depth Not available.
UV 5 out of 12
Pollen 4.70 out of 12
Air Quality Not available.
Flu Activity Not available.
METAR KUAO 051953Z AUTO 00000KT 10SM CLR 11/01 A3038 RMK AO2 SLP290 T01060011

More Conditions Fewer Conditions

10-Day Weather Forecast

Almanac

Astronomy

Mar. 05, 2015 Rise Set
Actual Time
Civil Twilight
Nautical Twilight
Astronomical Twilight
Moon
Length of Visible Light
Length of Day
Tomorrow will be .
, % of the Moon is Illuminated

Today's Extremes

State Highs State Lows

Community

WunderPhotos

Upload Photos

1,802,934 photos uploaded!

WunderBlogs® & News

Nearby

Air Quality

  Air Quality AQ Index Pollutant
Not available.

Snow Depth

Station Depth Elevation

Earthquake Activity

City Distance Mag. Time & Date
Minimum magnitude displayed is 2.5.

Coastal Water Temperatures

Place Temperature

Nearby Weather Stations